sensor_id;sensor_type;location;lat;lon;timestamp;temperature;humidity
24408;DHT22;12542;50.924;4.516;2023-03-01T00:02:07;2.80;99.90
24408;DHT22;12542;50.924;4.516;2023-03-01T00:04:32;2.80;99.90
24408;DHT22;12542;50.924;4.516;2023-03-01T00:06:59;2.70;99.90
24408;DHT22;12542;50.924;4.516;2023-03-01T00:09:24;2.60;99.90
24408;DHT22;12542;50.924;4.516;2023-03-01T00:11:50;2.50;99.90
24408;DHT22;12542;50.924;4.516;2023-03-01T00:14:16;2.50;99.90
24408;DHT22;12542;50.924;4.516;2023-03-01T00:16:43;2.40;99.90
24408;DHT22;12542;50.924;4.516;2023-03-01T00:19:12;2.30;99.90
24408;DHT22;12542;50.924;4.516;2023-03-01T00:21:42;2.10;99.90
24408;DHT22;12542;50.924;4.516;2023-03-01T00:24:08;2.10;99.90
24408;DHT22;12542;50.924;4.516;2023-03-01T00:26:34;2.10;99.90
24408;DHT22;12542;50.924;4.516;2023-03-01T00:29:00;2.10;99.90
24408;DHT22;12542;50.924;4.516;2023-03-01T00:31:31;2.20;99.90
24408;DHT22;12542;50.924;4.516;2023-03-01T00:34:04;2.20;99.90
24408;DHT22;12542;50.924;4.516;2023-03-01T00:36:33;2.20;99.90
24408;DHT22;12542;50.924;4.516;2023-03-01T00:38:59;2.10;99.90
24408;DHT22;12542;50.924;4.516;2023-03-01T00:41:27;2.00;99.90
24408;DHT22;12542;50.924;4.516;2023-03-01T00:43:54;2.00;99.90
24408;DHT22;12542;50.924;4.516;2023-03-01T00:46:22;2.00;99.90
24408;DHT22;12542;50.924;4.516;2023-03-01T00:48:48;2.00;99.90
24408;DHT22;12542;50.924;4.516;2023-03-01T00:51:17;1.90;99.90
24408;DHT22;12542;50.924;4.516;2023-03-01T00:53:43;1.90;99.90
24408;DHT22;12542;50.924;4.516;2023-03-01T00:56:11;1.90;99.90
24408;DHT22;12542;50.924;4.516;2023-03-01T00:58:40;1.80;99.90
24408;DHT22;12542;50.924;4.516;2023-03-01T01:01:14;1.80;99.90
24408;DHT22;12542;50.924;4.516;2023-03-01T01:04:10;1.80;99.90
24408;DHT22;12542;50.924;4.516;2023-03-01T01:06:39;1.80;99.90
24408;DHT22;12542;50.924;4.516;2023-03-01T01:09:14;1.80;99.90
24408;DHT22;12542;50.924;4.516;2023-03-01T01:11:45;1.90;99.90
24408;DHT22;12542;50.924;4.516;2023-03-01T01:14:11;1.90;99.90
24408;DHT22;12542;50.924;4.516;2023-03-01T01:16:37;2.00;99.90
24408;DHT22;12542;50.924;4.516;2023-03-01T01:19:03;2.10;99.90
24408;DHT22;12542;50.924;4.516;2023-03-01T01:21:29;1.90;99.90
24408;DHT22;12542;50.924;4.516;2023-03-01T01:23:55;2.10;99.90
24408;DHT22;12542;50.924;4.516;2023-03-01T01:26:30;2.00;99.90
24408;DHT22;12542;50.924;4.516;2023-03-01T01:29:02;2.20;99.90
24408;DHT22;12542;50.924;4.516;2023-03-01T01:31:28;2.20;99.90
24408;DHT22;12542;50.924;4.516;2023-03-01T01:33:55;2.00;99.90
24408;DHT22;12542;50.924;4.516;2023-03-01T01:36:22;2.00;99.90
24408;DHT22;12542;50.924;4.516;2023-03-01T01:38:48;2.20;99.90
24408;DHT22;12542;50.924;4.516;2023-03-01T01:41:15;2.30;99.90
24408;DHT22;12542;50.924;4.516;2023-03-01T01:43:47;2.30;99.90
24408;DHT22;12542;50.924;4.516;2023-03-01T01:49:28;2.30;99.90
24408;DHT22;12542;50.924;4.516;2023-03-01T01:57:14;1.90;99.90
24408;DHT22;12542;50.924;4.516;2023-03-01T01:59:44;1.90;99.90
24408;DHT22;12542;50.924;4.516;2023-03-01T02:02:12;1.80;99.90
24408;DHT22;12542;50.924;4.516;2023-03-01T02:04:38;1.80;99.90
24408;DHT22;12542;50.924;4.516;2023-03-01T02:07:19;1.80;99.90
24408;DHT22;12542;50.924;4.516;2023-03-01T02:09:49;1.70;99.90
24408;DHT22;12542;50.924;4.516;2023-03-01T02:12:17;1.50;99.90
24408;DHT22;12542;50.924;4.516;2023-03-01T02:14:43;1.60;99.90
24408;DHT22;12542;50.924;4.516;2023-03-01T02:17:11;1.50;99.90
24408;DHT22;12542;50.924;4.516;2023-03-01T02:22:34;1.40;99.90
24408;DHT22;12542;50.924;4.516;2023-03-01T02:30:33;1.30;99.90
24408;DHT22;12542;50.924;4.516;2023-03-01T02:33:00;1.20;99.90
24408;DHT22;12542;50.924;4.516;2023-03-01T02:35:37;1.30;99.90
24408;DHT22;12542;50.924;4.516;2023-03-01T02:38:06;1.30;99.90
24408;DHT22;12542;50.924;4.516;2023-03-01T02:40:36;1.30;99.90
24408;DHT22;12542;50.924;4.516;2023-03-01T02:43:04;1.20;99.90
24408;DHT22;12542;50.924;4.516;2023-03-01T02:45:33;1.20;99.90
24408;DHT22;12542;50.924;4.516;2023-03-01T02:47:59;1.20;99.90
24408;DHT22;12542;50.924;4.516;2023-03-01T02:53:17;1.20;99.90
24408;DHT22;12542;50.924;4.516;2023-03-01T02:55:45;1.10;99.90
24408;DHT22;12542;50.924;4.516;2023-03-01T02:58:13;1.10;99.90
24408;DHT22;12542;50.924;4.516;2023-03-01T03:00:42;1.10;99.90
24408;DHT22;12542;50.924;4.516;2023-03-01T03:03:17;1.10;99.90
24408;DHT22;12542;50.924;4.516;2023-03-01T03:05:44;1.20;99.90
24408;DHT22;12542;50.924;4.516;2023-03-01T03:08:13;1.10;99.90
24408;DHT22;12542;50.924;4.516;2023-03-01T03:10:40;1.10;99.90
24408;DHT22;12542;50.924;4.516;2023-03-01T03:13:13;1.10;99.90
24408;DHT22;12542;50.924;4.516;2023-03-01T03:15:41;1.10;99.90
24408;DHT22;12542;50.924;4.516;2023-03-01T03:18:10;1.10;99.90
24408;DHT22;12542;50.924;4.516;2023-03-01T03:20:39;1.00;99.90
24408;DHT22;12542;50.924;4.516;2023-03-01T03:23:05;1.00;99.90
24408;DHT22;12542;50.924;4.516;2023-03-01T03:25:31;1.10;99.90
24408;DHT22;12542;50.924;4.516;2023-03-01T03:27:57;1.20;99.90
24408;DHT22;12542;50.924;4.516;2023-03-01T03:30:31;1.10;99.90
24408;DHT22;12542;50.924;4.516;2023-03-01T03:32:58;1.40;99.90
24408;DHT22;12542;50.924;4.516;2023-03-01T03:35:27;1.30;99.90
24408;DHT22;12542;50.924;4.516;2023-03-01T03:37:56;1.20;99.90
24408;DHT22;12542;50.924;4.516;2023-03-01T03:42:54;1.50;99.90
24408;DHT22;12542;50.924;4.516;2023-03-01T03:45:20;1.50;99.90
24408;DHT22;12542;50.924;4.516;2023-03-01T03:47:46;1.30;99.90
24408;DHT22;12542;50.924;4.516;2023-03-01T03:50:15;1.30;99.90
24408;DHT22;12542;50.924;4.516;2023-03-01T03:52:41;1.30;99.90
24408;DHT22;12542;50.924;4.516;2023-03-01T03:55:09;1.30;99.90
24408;DHT22;12542;50.924;4.516;2023-03-01T03:57:41;1.10;99.90
24408;DHT22;12542;50.924;4.516;2023-03-01T04:00:11;1.00;99.90
24408;DHT22;12542;50.924;4.516;2023-03-01T04:02:43;1.10;99.90
24408;DHT22;12542;50.924;4.516;2023-03-01T04:05:11;1.10;99.90
24408;DHT22;12542;50.924;4.516;2023-03-01T04:07:37;0.90;99.90
24408;DHT22;12542;50.924;4.516;2023-03-01T04:10:06;1.10;99.90
24408;DHT22;12542;50.924;4.516;2023-03-01T04:12:34;1.20;99.90
24408;DHT22;12542;50.924;4.516;2023-03-01T04:15:06;1.30;99.90
24408;DHT22;12542;50.924;4.516;2023-03-01T04:17:44;1.20;99.90
24408;DHT22;12542;50.924;4.516;2023-03-01T04:20:12;1.10;99.90
24408;DHT22;12542;50.924;4.516;2023-03-01T04:22:39;0.90;99.90
24408;DHT22;12542;50.924;4.516;2023-03-01T04:25:06;1.10;99.90
24408;DHT22;12542;50.924;4.516;2023-03-01T04:27:35;1.00;99.90
24408;DHT22;12542;50.924;4.516;2023-03-01T04:30:03;1.00;99.90
24408;DHT22;12542;50.924;4.516;2023-03-01T04:32:29;0.90;99.90
24408;DHT22;12542;50.924;4.516;2023-03-01T04:34:54;0.90;99.90
24408;DHT22;12542;50.924;4.516;2023-03-01T04:37:20;0.90;99.90
24408;DHT22;12542;50.924;4.516;2023-03-01T04:39:46;0.80;99.90
24408;DHT22;12542;50.924;4.516;2023-03-01T04:42:15;0.80;99.90
24408;DHT22;12542;50.924;4.516;2023-03-01T04:44:43;0.80;99.90
24408;DHT22;12542;50.924;4.516;2023-03-01T04:47:09;0.70;99.90
24408;DHT22;12542;50.924;4.516;2023-03-01T04:49:35;0.60;99.90
24408;DHT22;12542;50.924;4.516;2023-03-01T04:52:00;0.60;99.90
24408;DHT22;12542;50.924;4.516;2023-03-01T04:54:33;0.70;99.90
24408;DHT22;12542;50.924;4.516;2023-03-01T04:57:00;0.90;99.90
24408;DHT22;12542;50.924;4.516;2023-03-01T04:59:26;0.90;99.90
24408;DHT22;12542;50.924;4.516;2023-03-01T05:01:53;0.80;99.90
24408;DHT22;12542;50.924;4.516;2023-03-01T05:04:24;0.80;99.90
24408;DHT22;12542;50.924;4.516;2023-03-01T05:06:50;0.70;99.90
24408;DHT22;12542;50.924;4.516;2023-03-01T05:09:16;0.70;99.90
24408;DHT22;12542;50.924;4.516;2023-03-01T05:11:44;0.60;99.90
24408;DHT22;12542;50.924;4.516;2023-03-01T05:14:10;0.60;99.90
24408;DHT22;12542;50.924;4.516;2023-03-01T05:16:36;0.50;99.90
24408;DHT22;12542;50.924;4.516;2023-03-01T05:19:03;0.50;99.90
24408;DHT22;12542;50.924;4.516;2023-03-01T05:21:40;0.70;99.90
24408;DHT22;12542;50.924;4.516;2023-03-01T05:24:26;0.80;99.90
24408;DHT22;12542;50.924;4.516;2023-03-01T05:26:52;0.90;99.90
24408;DHT22;12542;50.924;4.516;2023-03-01T05:29:20;0.80;99.90
24408;DHT22;12542;50.924;4.516;2023-03-01T05:32:00;0.80;99.90
24408;DHT22;12542;50.924;4.516;2023-03-01T05:34:36;0.90;99.90
24408;DHT22;12542;50.924;4.516;2023-03-01T05:37:02;0.90;99.90
24408;DHT22;12542;50.924;4.516;2023-03-01T05:39:29;0.80;99.90
24408;DHT22;12542;50.924;4.516;2023-03-01T05:41:57;0.70;99.90
24408;DHT22;12542;50.924;4.516;2023-03-01T05:44:24;0.80;99.90
24408;DHT22;12542;50.924;4.516;2023-03-01T05:46:50;0.70;99.90
24408;DHT22;12542;50.924;4.516;2023-03-01T05:49:16;0.70;99.90
24408;DHT22;12542;50.924;4.516;2023-03-01T05:51:43;0.70;99.90
24408;DHT22;12542;50.924;4.516;2023-03-01T05:54:12;0.70;99.90
24408;DHT22;12542;50.924;4.516;2023-03-01T05:56:38;0.60;99.90
24408;DHT22;12542;50.924;4.516;2023-03-01T05:59:05;0.50;99.90
24408;DHT22;12542;50.924;4.516;2023-03-01T06:01:32;0.10;99.90
24408;DHT22;12542;50.924;4.516;2023-03-01T06:03:58;0.30;99.90
24408;DHT22;12542;50.924;4.516;2023-03-01T06:06:24;0.30;99.90
24408;DHT22;12542;50.924;4.516;2023-03-01T06:08:51;0.30;99.90
24408;DHT22;12542;50.924;4.516;2023-03-01T06:11:17;0.30;99.90
24408;DHT22;12542;50.924;4.516;2023-03-01T06:13:44;0.40;99.90
24408;DHT22;12542;50.924;4.516;2023-03-01T06:16:10;0.50;99.90
24408;DHT22;12542;50.924;4.516;2023-03-01T06:18:37;0.50;99.90
24408;DHT22;12542;50.924;4.516;2023-03-01T06:21:03;0.40;99.90
24408;DHT22;12542;50.924;4.516;2023-03-01T06:23:30;0.60;99.90
24408;DHT22;12542;50.924;4.516;2023-03-01T06:25:55;0.60;99.90
24408;DHT22;12542;50.924;4.516;2023-03-01T06:28:21;0.50;99.90
24408;DHT22;12542;50.924;4.516;2023-03-01T06:30:47;0.50;99.90
24408;DHT22;12542;50.924;4.516;2023-03-01T06:33:13;0.30;99.90
24408;DHT22;12542;50.924;4.516;2023-03-01T06:35:39;0.30;99.90
24408;DHT22;12542;50.924;4.516;2023-03-01T06:38:05;0.40;99.90
24408;DHT22;12542;50.924;4.516;2023-03-01T06:40:31;0.30;99.90
24408;DHT22;12542;50.924;4.516;2023-03-01T06:42:58;0.20;99.90
24408;DHT22;12542;50.924;4.516;2023-03-01T06:45:25;0.10;99.90
24408;DHT22;12542;50.924;4.516;2023-03-01T06:47:51;-0.10;99.90
24408;DHT22;12542;50.924;4.516;2023-03-01T06:50:21;0.00;99.90
24408;DHT22;12542;50.924;4.516;2023-03-01T06:52:47;0.30;99.90
24408;DHT22;12542;50.924;4.516;2023-03-01T06:55:14;0.70;99.90
24408;DHT22;12542;50.924;4.516;2023-03-01T06:57:40;1.20;99.90
24408;DHT22;12542;50.924;4.516;2023-03-01T07:00:06;1.80;99.90
24408;DHT22;12542;50.924;4.516;2023-03-01T07:02:37;2.20;99.90
24408;DHT22;12542;50.924;4.516;2023-03-01T07:05:03;2.80;99.90
24408;DHT22;12542;50.924;4.516;2023-03-01T07:07:28;3.30;99.90
24408;DHT22;12542;50.924;4.516;2023-03-01T07:09:54;3.70;99.90
24408;DHT22;12542;50.924;4.516;2023-03-01T07:12:20;4.00;99.90
24408;DHT22;12542;50.924;4.516;2023-03-01T07:14:46;4.50;99.90
24408;DHT22;12542;50.924;4.516;2023-03-01T07:17:12;4.90;99.90
24408;DHT22;12542;50.924;4.516;2023-03-01T07:19:38;5.30;99.90
24408;DHT22;12542;50.924;4.516;2023-03-01T07:22:04;5.20;99.90
24408;DHT22;12542;50.924;4.516;2023-03-01T07:24:33;5.20;99.90
24408;DHT22;12542;50.924;4.516;2023-03-01T07:27:00;5.90;99.90
24408;DHT22;12542;50.924;4.516;2023-03-01T07:29:26;6.70;99.90
24408;DHT22;12542;50.924;4.516;2023-03-01T07:31:51;7.60;99.90
24408;DHT22;12542;50.924;4.516;2023-03-01T07:34:17;8.70;97.80
24408;DHT22;12542;50.924;4.516;2023-03-01T07:36:43;10.10;93.60
24408;DHT22;12542;50.924;4.516;2023-03-01T07:39:13;11.30;89.90
24408;DHT22;12542;50.924;4.516;2023-03-01T07:41:38;12.20;84.80
24408;DHT22;12542;50.924;4.516;2023-03-01T07:44:06;12.70;81.20
24408;DHT22;12542;50.924;4.516;2023-03-01T07:46:32;13.20;78.40
24408;DHT22;12542;50.924;4.516;2023-03-01T07:49:00;13.80;75.20
24408;DHT22;12542;50.924;4.516;2023-03-01T07:51:26;14.10;73.90
24408;DHT22;12542;50.924;4.516;2023-03-01T07:53:52;14.20;71.60
24408;DHT22;12542;50.924;4.516;2023-03-01T07:56:20;14.00;70.60
24408;DHT22;12542;50.924;4.516;2023-03-01T07:58:47;13.70;71.90
24408;DHT22;12542;50.924;4.516;2023-03-01T08:01:16;13.40;72.00
24408;DHT22;12542;50.924;4.516;2023-03-01T08:03:43;13.20;72.90
24408;DHT22;12542;50.924;4.516;2023-03-01T08:06:10;13.50;71.70
24408;DHT22;12542;50.924;4.516;2023-03-01T08:08:37;13.50;70.90
24408;DHT22;12542;50.924;4.516;2023-03-01T08:11:07;13.90;70.60
24408;DHT22;12542;50.924;4.516;2023-03-01T08:13:35;13.60;69.80
24408;DHT22;12542;50.924;4.516;2023-03-01T08:16:05;13.10;70.10
24408;DHT22;12542;50.924;4.516;2023-03-01T08:18:32;13.30;71.70
24408;DHT22;12542;50.924;4.516;2023-03-01T08:21:10;13.70;70.30
24408;DHT22;12542;50.924;4.516;2023-03-01T08:23:40;12.00;74.20
24408;DHT22;12542;50.924;4.516;2023-03-01T08:31:41;12.00;77.20
24408;DHT22;12542;50.924;4.516;2023-03-01T08:34:09;12.40;75.30
24408;DHT22;12542;50.924;4.516;2023-03-01T08:36:38;13.00;73.70
24408;DHT22;12542;50.924;4.516;2023-03-01T08:39:21;12.80;73.00
24408;DHT22;12542;50.924;4.516;2023-03-01T08:41:53;11.30;78.00
24408;DHT22;12542;50.924;4.516;2023-03-01T08:44:19;11.70;78.00
24408;DHT22;12542;50.924;4.516;2023-03-01T08:49:57;11.50;77.50
24408;DHT22;12542;50.924;4.516;2023-03-01T08:52:26;11.50;78.60
24408;DHT22;12542;50.924;4.516;2023-03-01T08:54:52;11.20;80.40
24408;DHT22;12542;50.924;4.516;2023-03-01T08:57:18;11.20;79.90
24408;DHT22;12542;50.924;4.516;2023-03-01T08:59:44;9.80;82.30
24408;DHT22;12542;50.924;4.516;2023-03-01T09:02:13;10.00;84.30
24408;DHT22;12542;50.924;4.516;2023-03-01T09:04:39;9.90;84.10
24408;DHT22;12542;50.924;4.516;2023-03-01T09:07:05;9.20;88.80
24408;DHT22;12542;50.924;4.516;2023-03-01T09:09:31;9.30;88.70
24408;DHT22;12542;50.924;4.516;2023-03-01T09:11:58;9.90;87.20
24408;DHT22;12542;50.924;4.516;2023-03-01T09:14:24;9.70;85.20
24408;DHT22;12542;50.924;4.516;2023-03-01T09:16:50;9.60;86.70
24408;DHT22;12542;50.924;4.516;2023-03-01T09:19:16;8.90;88.70
24408;DHT22;12542;50.924;4.516;2023-03-01T09:21:42;8.70;90.70
24408;DHT22;12542;50.924;4.516;2023-03-01T09:24:18;8.80;90.30
24408;DHT22;12542;50.924;4.516;2023-03-01T09:26:45;8.40;90.80
24408;DHT22;12542;50.924;4.516;2023-03-01T09:29:12;8.40;91.20
24408;DHT22;12542;50.924;4.516;2023-03-01T09:31:38;8.20;91.50
24408;DHT22;12542;50.924;4.516;2023-03-01T09:34:05;8.20;92.30
24408;DHT22;12542;50.924;4.516;2023-03-01T09:36:31;7.80;92.60
24408;DHT22;12542;50.924;4.516;2023-03-01T09:38:58;7.50;92.80
24408;DHT22;12542;50.924;4.516;2023-03-01T09:44:16;7.50;92.90
24408;DHT22;12542;50.924;4.516;2023-03-01T09:46:47;7.30;94.20
24408;DHT22;12542;50.924;4.516;2023-03-01T09:49:22;7.60;93.40
24408;DHT22;12542;50.924;4.516;2023-03-01T09:52:21;7.40;92.80
24408;DHT22;12542;50.924;4.516;2023-03-01T09:54:54;6.70;93.10
24408;DHT22;12542;50.924;4.516;2023-03-01T09:58:00;7.30;93.90
24408;DHT22;12542;50.924;4.516;2023-03-01T10:00:31;7.10;93.70
24408;DHT22;12542;50.924;4.516;2023-03-01T10:02:59;6.70;94.40
24408;DHT22;12542;50.924;4.516;2023-03-01T10:10:59;7.70;93.90
24408;DHT22;12542;50.924;4.516;2023-03-01T10:16:16;7.80;93.60
24408;DHT22;12542;50.924;4.516;2023-03-01T10:18:52;7.80;92.50
24408;DHT22;12542;50.924;4.516;2023-03-01T10:21:20;7.40;92.80
24408;DHT22;12542;50.924;4.516;2023-03-01T10:23:50;6.60;94.20
24408;DHT22;12542;50.924;4.516;2023-03-01T10:26:38;6.60;95.00
24408;DHT22;12542;50.924;4.516;2023-03-01T10:29:11;6.20;95.70
24408;DHT22;12542;50.924;4.516;2023-03-01T10:31:47;6.30;95.90
24408;DHT22;12542;50.924;4.516;2023-03-01T10:34:31;6.40;95.10
24408;DHT22;12542;50.924;4.516;2023-03-01T10:37:04;6.40;95.80
24408;DHT22;12542;50.924;4.516;2023-03-01T10:39:34;6.80;94.60
24408;DHT22;12542;50.924;4.516;2023-03-01T10:42:05;7.20;94.60
24408;DHT22;12542;50.924;4.516;2023-03-01T10:47:14;7.80;92.80
24408;DHT22;12542;50.924;4.516;2023-03-01T10:49:52;7.70;92.10
24408;DHT22;12542;50.924;4.516;2023-03-01T10:52:20;7.50;92.40
24408;DHT22;12542;50.924;4.516;2023-03-01T10:57:41;7.60;93.30
24408;DHT22;12542;50.924;4.516;2023-03-01T11:00:23;7.70;93.00
24408;DHT22;12542;50.924;4.516;2023-03-01T11:05:25;7.90;91.50
24408;DHT22;12542;50.924;4.516;2023-03-01T11:07:58;7.50;91.70
24408;DHT22;12542;50.924;4.516;2023-03-01T11:12:52;7.20;93.00
24408;DHT22;12542;50.924;4.516;2023-03-01T11:15:27;7.30;92.10
24408;DHT22;12542;50.924;4.516;2023-03-01T11:17:54;7.40;91.80
24408;DHT22;12542;50.924;4.516;2023-03-01T11:20:34;7.80;91.90
24408;DHT22;12542;50.924;4.516;2023-03-01T11:23:08;7.80;91.60
24408;DHT22;12542;50.924;4.516;2023-03-01T11:25:54;7.80;91.20
24408;DHT22;12542;50.924;4.516;2023-03-01T11:28:20;7.60;91.50
24408;DHT22;12542;50.924;4.516;2023-03-01T11:31:06;7.60;92.10
24408;DHT22;12542;50.924;4.516;2023-03-01T11:33:48;7.80;91.10
24408;DHT22;12542;50.924;4.516;2023-03-01T11:36:26;7.60;90.80
24408;DHT22;12542;50.924;4.516;2023-03-01T11:38:55;7.30;91.10
24408;DHT22;12542;50.924;4.516;2023-03-01T11:41:25;7.10;91.00
24408;DHT22;12542;50.924;4.516;2023-03-01T11:44:01;7.20;91.00
24408;DHT22;12542;50.924;4.516;2023-03-01T11:52:52;7.10;91.60
24408;DHT22;12542;50.924;4.516;2023-03-01T12:31:08;8.70;89.10
24408;DHT22;12542;50.924;4.516;2023-03-01T12:42:25;8.50;89.40
24408;DHT22;12542;50.924;4.516;2023-03-01T12:50:20;8.00;90.20
24408;DHT22;12542;50.924;4.516;2023-03-01T13:01:19;8.10;89.00
24408;DHT22;12542;50.924;4.516;2023-03-01T13:15:44;8.30;87.90
24408;DHT22;12542;50.924;4.516;2023-03-01T13:18:46;8.50;89.50
24408;DHT22;12542;50.924;4.516;2023-03-01T13:24:22;8.60;88.50
24408;DHT22;12542;50.924;4.516;2023-03-01T13:29:45;8.20;89.50
24408;DHT22;12542;50.924;4.516;2023-03-01T13:34:52;8.40;90.30
24408;DHT22;12542;50.924;4.516;2023-03-01T13:37:23;8.30;88.50
24408;DHT22;12542;50.924;4.516;2023-03-01T13:39:52;8.10;89.10
24408;DHT22;12542;50.924;4.516;2023-03-01T13:44:59;8.20;87.60
24408;DHT22;12542;50.924;4.516;2023-03-01T13:47:27;8.20;87.80
24408;DHT22;12542;50.924;4.516;2023-03-01T13:49:58;8.20;88.00
24408;DHT22;12542;50.924;4.516;2023-03-01T13:55:41;8.10;88.40
24408;DHT22;12542;50.924;4.516;2023-03-01T13:58:43;8.20;88.30
24408;DHT22;12542;50.924;4.516;2023-03-01T14:01:31;8.50;88.20
24408;DHT22;12542;50.924;4.516;2023-03-01T14:03:57;8.60;89.30
24408;DHT22;12542;50.924;4.516;2023-03-01T14:09:03;8.40;86.70
24408;DHT22;12542;50.924;4.516;2023-03-01T14:14:36;8.10;89.50
24408;DHT22;12542;50.924;4.516;2023-03-01T14:19:59;8.00;89.90
24408;DHT22;12542;50.924;4.516;2023-03-01T14:24:59;8.00;89.30
24408;DHT22;12542;50.924;4.516;2023-03-01T14:27:32;7.80;89.90
24408;DHT22;12542;50.924;4.516;2023-03-01T14:30:02;7.90;90.60
24408;DHT22;12542;50.924;4.516;2023-03-01T14:32:30;7.90;90.30
24408;DHT22;12542;50.924;4.516;2023-03-01T14:34:59;7.90;90.40
24408;DHT22;12542;50.924;4.516;2023-03-01T14:37:34;8.10;89.60
24408;DHT22;12542;50.924;4.516;2023-03-01T14:40:00;8.10;89.00
24408;DHT22;12542;50.924;4.516;2023-03-01T14:42:29;8.00;88.90
24408;DHT22;12542;50.924;4.516;2023-03-01T14:44:59;8.10;90.20
24408;DHT22;12542;50.924;4.516;2023-03-01T14:47:31;8.10;90.00
24408;DHT22;12542;50.924;4.516;2023-03-01T14:50:01;8.20;89.30
24408;DHT22;12542;50.924;4.516;2023-03-01T14:52:35;8.20;89.30
24408;DHT22;12542;50.924;4.516;2023-03-01T14:55:07;8.30;89.40
24408;DHT22;12542;50.924;4.516;2023-03-01T14:57:43;8.40;90.10
24408;DHT22;12542;50.924;4.516;2023-03-01T15:00:23;8.40;90.10
24408;DHT22;12542;50.924;4.516;2023-03-01T15:02:53;8.30;89.20
24408;DHT22;12542;50.924;4.516;2023-03-01T15:05:32;8.20;90.20
24408;DHT22;12542;50.924;4.516;2023-03-01T15:08:02;8.20;90.30
24408;DHT22;12542;50.924;4.516;2023-03-01T15:10:34;8.20;90.50
24408;DHT22;12542;50.924;4.516;2023-03-01T15:13:34;8.30;90.70
24408;DHT22;12542;50.924;4.516;2023-03-01T15:18:34;8.10;91.50
24408;DHT22;12542;50.924;4.516;2023-03-01T15:21:31;8.10;90.80
24408;DHT22;12542;50.924;4.516;2023-03-01T15:26:53;8.00;90.20
24408;DHT22;12542;50.924;4.516;2023-03-01T15:29:27;7.80;90.70
24408;DHT22;12542;50.924;4.516;2023-03-01T15:32:03;7.80;90.70
24408;DHT22;12542;50.924;4.516;2023-03-01T15:34:34;7.80;90.80
24408;DHT22;12542;50.924;4.516;2023-03-01T15:37:03;8.00;91.00
24408;DHT22;12542;50.924;4.516;2023-03-01T15:39:38;8.00;90.60
24408;DHT22;12542;50.924;4.516;2023-03-01T15:42:05;8.00;90.70
24408;DHT22;12542;50.924;4.516;2023-03-01T15:44:34;8.00;90.60
24408;DHT22;12542;50.924;4.516;2023-03-01T15:47:00;8.10;90.80
24408;DHT22;12542;50.924;4.516;2023-03-01T15:49:43;8.00;90.80
24408;DHT22;12542;50.924;4.516;2023-03-01T15:52:13;8.00;91.10
24408;DHT22;12542;50.924;4.516;2023-03-01T15:54:44;8.00;91.10
24408;DHT22;12542;50.924;4.516;2023-03-01T15:57:16;7.90;91.30
24408;DHT22;12542;50.924;4.516;2023-03-01T15:59:44;7.80;91.30
24408;DHT22;12542;50.924;4.516;2023-03-01T16:02:11;7.80;91.40
24408;DHT22;12542;50.924;4.516;2023-03-01T16:04:38;7.90;91.50
24408;DHT22;12542;50.924;4.516;2023-03-01T16:07:05;7.90;91.80
24408;DHT22;12542;50.924;4.516;2023-03-01T16:11:59;7.80;91.80
24408;DHT22;12542;50.924;4.516;2023-03-01T16:14:27;7.80;91.70
24408;DHT22;12542;50.924;4.516;2023-03-01T16:16:53;7.90;91.90
24408;DHT22;12542;50.924;4.516;2023-03-01T16:19:18;7.80;91.70
24408;DHT22;12542;50.924;4.516;2023-03-01T16:21:44;7.70;91.80
24408;DHT22;12542;50.924;4.516;2023-03-01T16:24:12;7.80;92.10
24408;DHT22;12542;50.924;4.516;2023-03-01T16:26:38;7.80;92.00
24408;DHT22;12542;50.924;4.516;2023-03-01T16:29:04;7.90;91.90
24408;DHT22;12542;50.924;4.516;2023-03-01T16:31:30;7.80;92.00
24408;DHT22;12542;50.924;4.516;2023-03-01T16:33:57;7.80;92.40
24408;DHT22;12542;50.924;4.516;2023-03-01T16:36:25;7.60;92.40
24408;DHT22;12542;50.924;4.516;2023-03-01T16:38:52;7.60;92.60
24408;DHT22;12542;50.924;4.516;2023-03-01T16:41:22;7.60;92.70
24408;DHT22;12542;50.924;4.516;2023-03-01T16:43:49;7.50;92.70
24408;DHT22;12542;50.924;4.516;2023-03-01T16:46:26;7.60;92.60
24408;DHT22;12542;50.924;4.516;2023-03-01T16:48:54;7.70;93.00
24408;DHT22;12542;50.924;4.516;2023-03-01T16:51:22;7.70;92.90
24408;DHT22;12542;50.924;4.516;2023-03-01T16:53:48;7.50;92.90
24408;DHT22;12542;50.924;4.516;2023-03-01T16:56:15;7.50;92.50
24408;DHT22;12542;50.924;4.516;2023-03-01T16:58:42;7.40;92.60
24408;DHT22;12542;50.924;4.516;2023-03-01T17:01:16;7.50;92.50
24408;DHT22;12542;50.924;4.516;2023-03-01T17:03:43;7.50;92.40
24408;DHT22;12542;50.924;4.516;2023-03-01T17:06:12;7.40;92.60
24408;DHT22;12542;50.924;4.516;2023-03-01T17:08:38;7.20;92.70
24408;DHT22;12542;50.924;4.516;2023-03-01T17:11:09;7.30;92.90
24408;DHT22;12542;50.924;4.516;2023-03-01T17:13:36;7.30;92.80
24408;DHT22;12542;50.924;4.516;2023-03-01T17:16:06;7.20;92.90
24408;DHT22;12542;50.924;4.516;2023-03-01T17:18:33;7.20;92.80
24408;DHT22;12542;50.924;4.516;2023-03-01T17:20:59;7.10;93.10
24408;DHT22;12542;50.924;4.516;2023-03-01T17:23:26;7.30;93.00
24408;DHT22;12542;50.924;4.516;2023-03-01T17:25:52;7.20;93.30
24408;DHT22;12542;50.924;4.516;2023-03-01T17:28:24;7.20;93.30
24408;DHT22;12542;50.924;4.516;2023-03-01T17:30:51;7.20;93.40
24408;DHT22;12542;50.924;4.516;2023-03-01T17:33:17;7.00;93.60
24408;DHT22;12542;50.924;4.516;2023-03-01T17:35:43;7.10;93.60
24408;DHT22;12542;50.924;4.516;2023-03-01T17:38:14;7.10;93.60
24408;DHT22;12542;50.924;4.516;2023-03-01T17:40:43;7.10;93.70
24408;DHT22;12542;50.924;4.516;2023-03-01T17:43:13;7.00;93.90
24408;DHT22;12542;50.924;4.516;2023-03-01T17:45:39;7.00;94.10
24408;DHT22;12542;50.924;4.516;2023-03-01T17:48:06;6.90;94.30
24408;DHT22;12542;50.924;4.516;2023-03-01T17:50:32;6.70;94.60
24408;DHT22;12542;50.924;4.516;2023-03-01T17:53:01;6.60;95.30
24408;DHT22;12542;50.924;4.516;2023-03-01T17:55:31;6.70;95.40
24408;DHT22;12542;50.924;4.516;2023-03-01T17:57:57;6.70;95.20
24408;DHT22;12542;50.924;4.516;2023-03-01T18:00:23;6.70;95.60
24408;DHT22;12542;50.924;4.516;2023-03-01T18:02:49;6.70;95.20
24408;DHT22;12542;50.924;4.516;2023-03-01T18:05:14;6.70;95.50
24408;DHT22;12542;50.924;4.516;2023-03-01T18:07:40;6.60;95.70
24408;DHT22;12542;50.924;4.516;2023-03-01T18:10:06;6.60;95.70
24408;DHT22;12542;50.924;4.516;2023-03-01T18:12:32;6.60;95.80
24408;DHT22;12542;50.924;4.516;2023-03-01T18:14:58;6.60;95.80
24408;DHT22;12542;50.924;4.516;2023-03-01T18:17:26;6.50;95.60
24408;DHT22;12542;50.924;4.516;2023-03-01T18:19:52;6.50;95.30
24408;DHT22;12542;50.924;4.516;2023-03-01T18:22:20;6.70;95.00
24408;DHT22;12542;50.924;4.516;2023-03-01T18:24:46;6.40;95.30
24408;DHT22;12542;50.924;4.516;2023-03-01T18:27:11;6.40;95.50
24408;DHT22;12542;50.924;4.516;2023-03-01T18:29:37;6.50;95.40
24408;DHT22;12542;50.924;4.516;2023-03-01T18:32:04;6.50;95.40
24408;DHT22;12542;50.924;4.516;2023-03-01T18:34:30;6.70;95.10
24408;DHT22;12542;50.924;4.516;2023-03-01T18:36:55;6.80;94.90
24408;DHT22;12542;50.924;4.516;2023-03-01T18:39:22;6.70;95.20
24408;DHT22;12542;50.924;4.516;2023-03-01T18:41:48;6.60;95.10